Time;durP1;ratioP1;P1;durP2;ratioP2;P2;SDS_P1;SDS_P2;PMS_P1;PMS_P2;Temp;Humidity;BMP_temperature;BMP_pressure;BME280_temperature;BME280_humidity;BME280_pressure;Samples;Min_cycle;Max_cycle;Signal;HPM_P1;HPM_P2
2023/01/14 00:00:24;;;;;;;18.87;3.20;;;;;;;;;;5068986;28;20078;-66
2023/01/14 00:02:50;;;;;;;29.63;4.80;;;;;;;;;;5070160;28;20052;-66
2023/01/14 00:05:16;;;;;;;25.43;3.13;;;;;;;;;;5070177;28;20048;-66
2023/01/14 00:07:42;;;;;;;17.20;3.00;;;;;;;;;;5069932;28;20605;-66
2023/01/14 00:10:09;;;;;;;22.33;4.10;;;;;;;;;;5067133;28;20523;-67
2023/01/14 00:12:35;;;;;;;15.63;2.83;;;;;;;;;;5068514;28;20047;-66
2023/01/14 00:15:01;;;;;;;17.90;3.60;;;;;;;;;;5068663;28;20575;-66
2023/01/14 00:17:27;;;;;;;15.73;3.07;;;;;;;;;;5068884;28;20395;-66
2023/01/14 00:19:53;;;;;;;14.77;2.80;;;;;;;;;;5069630;28;20040;-66
2023/01/14 00:22:19;;;;;;;19.00;2.70;;;;;;;;;;5069964;28;20045;-67
2023/01/14 00:24:46;;;;;;;15.17;3.27;;;;;;;;;;5069939;28;20082;-66
2023/01/14 00:27:15;;;;;;;26.30;4.27;;;;;;;;;;5070100;28;20093;-66
2023/01/14 00:29:41;;;;;;;17.03;3.40;;;;;;;;;;5069469;28;20515;-66
2023/01/14 00:32:07;;;;;;;23.17;4.33;;;;;;;;;;5069076;28;20048;-66
2023/01/14 00:34:36;;;;;;;20.33;3.00;;;;;;;;;;5051912;28;20124;-66
2023/01/14 00:37:02;;;;;;;20.53;3.27;;;;;;;;;;5056957;28;20048;-66
2023/01/14 00:39:28;;;;;;;21.80;3.77;;;;;;;;;;5048196;28;20139;-66
2023/01/14 00:41:54;;;;;;;23.23;4.47;;;;;;;;;;5048935;28;20107;-66
2023/01/14 00:44:20;;;;;;;17.43;3.63;;;;;;;;;;5049436;28;20076;-66
2023/01/14 00:46:46;;;;;;;21.27;3.87;;;;;;;;;;5049067;28;20478;-67
2023/01/14 00:49:17;;;;;;;17.57;3.67;;;;;;;;;;5031510;28;20056;-66
2023/01/14 00:51:43;;;;;;;29.10;5.00;;;;;;;;;;5048503;28;20045;-66
2023/01/14 00:54:09;;;;;;;22.97;4.60;;;;;;;;;;5049035;28;20060;-66
2023/01/14 00:56:35;;;;;;;19.43;3.07;;;;;;;;;;5048925;28;20528;-66
2023/01/14 00:59:01;;;;;;;27.87;4.40;;;;;;;;;;5048943;28;20081;-66
2023/01/14 01:01:27;;;;;;;20.20;3.90;;;;;;;;;;5049174;28;20087;-64
2023/01/14 01:03:56;;;;;;;22.30;3.23;;;;;;;;;;5048919;28;20072;-64
2023/01/14 01:06:23;;;;;;;19.90;3.20;;;;;;;;;;5049280;28;20124;-64
2023/01/14 01:08:49;;;;;;;23.00;3.90;;;;;;;;;;5048434;28;20053;-64
2023/01/14 01:11:16;;;;;;;23.87;4.20;;;;;;;;;;5048980;28;20518;-64
2023/01/14 01:13:42;;;;;;;34.40;5.37;;;;;;;;;;5048863;28;20094;-64
2023/01/14 01:16:12;;;;;;;17.97;3.47;;;;;;;;;;5049200;28;20041;-64
2023/01/14 01:18:38;;;;;;;14.83;3.57;;;;;;;;;;5047709;28;20080;-64
2023/01/14 01:21:11;;;;;;;30.70;5.07;;;;;;;;;;5048607;28;20127;-64
2023/01/14 01:23:41;;;;;;;26.10;4.93;;;;;;;;;;5047313;28;20432;-65
2023/01/14 01:26:08;;;;;;;24.77;3.33;;;;;;;;;;5048956;28;20077;-64
2023/01/14 01:28:34;;;;;;;23.80;4.50;;;;;;;;;;5048297;28;20072;-65
2023/01/14 01:31:04;;;;;;;24.43;3.13;;;;;;;;;;5048440;28;20578;-65
2023/01/14 01:33:31;;;;;;;22.43;4.47;;;;;;;;;;5048544;28;20055;-64
2023/01/14 01:36:23;;;;;;;26.50;5.37;;;;;;;;;;5055909;28;20045;-65
2023/01/14 01:38:49;;;;;;;33.23;4.50;;;;;;;;;;5046892;28;20633;-64
2023/01/14 01:41:20;;;;;;;22.60;3.60;;;;;;;;;;5047118;28;20056;-64
2023/01/14 01:44:07;;;;;;;21.73;4.57;;;;;;;;;;5048559;28;20068;-64
2023/01/14 01:46:34;;;;;;;24.10;3.63;;;;;;;;;;5048427;28;20499;-64
2023/01/14 01:49:09;;;;;;;28.87;3.80;;;;;;;;;;5047181;28;20144;-64
2023/01/14 01:51:38;;;;;;;24.97;5.17;;;;;;;;;;5048226;28;20041;-64
2023/01/14 01:54:05;;;;;;;26.07;4.73;;;;;;;;;;5046945;28;20053;-64
2023/01/14 01:56:34;;;;;;;24.13;4.47;;;;;;;;;;5048300;28;20045;-64
2023/01/14 01:59:01;;;;;;;24.90;3.70;;;;;;;;;;5048258;28;20392;-65
2023/01/14 02:01:27;;;;;;;25.73;4.50;;;;;;;;;;5047442;28;20044;-65
2023/01/14 02:03:54;;;;;;;23.07;3.77;;;;;;;;;;5052808;28;20045;-65
2023/01/14 02:06:20;;;;;;;22.63;4.50;;;;;;;;;;5052728;28;20063;-65
2023/01/14 02:08:48;;;;;;;23.80;4.53;;;;;;;;;;5052075;28;20099;-65
2023/01/14 02:11:21;;;;;;;25.07;4.87;;;;;;;;;;5052249;28;20041;-65
2023/01/14 02:14:04;;;;;;;20.48;3.75;;;;;;;;;;5052157;28;20051;-65
2023/01/14 02:16:30;;;;;;;;;;;;;;;;;;5051749;28;20056;-64
2023/01/14 02:19:04;;;;;;;23.23;3.90;;;;;;;;;;5052316;28;20045;-65
2023/01/14 02:21:31;;;;;;;20.20;3.80;;;;;;;;;;5051740;28;20483;-65
2023/01/14 02:24:16;;;;;;;27.53;4.90;;;;;;;;;;5052129;28;20044;-65
2023/01/14 02:26:45;;;;;;;21.40;3.93;;;;;;;;;;5052008;28;20045;-65
2023/01/14 02:29:26;;;;;;;14.80;2.90;;;;;;;;;;5071682;28;20503;-65
2023/01/14 02:31:55;;;;;;;15.70;3.00;;;;;;;;;;5071778;28;20052;-65
2023/01/14 02:34:34;;;;;;;26.53;3.97;;;;;;;;;;5070793;28;20048;-66
2023/01/14 02:37:07;;;;;;;24.10;3.83;;;;;;;;;;5068313;28;20407;-65
2023/01/14 02:39:38;;;;;;;20.27;5.38;;;;;;;;;;5051671;28;20098;-65
2023/01/14 02:45:22;;;;;;;22.60;4.13;;;;;;;;;;5051810;28;20053;-65
2023/01/14 02:47:49;;;;;;;23.33;4.50;;;;;;;;;;5051034;28;20061;-65
2023/01/14 02:50:16;;;;;;;20.17;3.47;;;;;;;;;;5051509;28;20174;-65
2023/01/14 02:52:42;;;;;;;16.50;2.73;;;;;;;;;;5051740;28;20052;-65
2023/01/14 02:55:28;;;;;;;23.70;3.50;;;;;;;;;;5055406;28;20044;-65
2023/01/14 02:58:13;;;;;;;20.00;3.40;;;;;;;;;;5049926;28;20088;-65
2023/01/14 03:00:42;;;;;;;22.10;3.30;;;;;;;;;;5051033;28;20538;-65
2023/01/14 03:03:11;;;;;;;33.60;4.10;;;;;;;;;;5050914;28;20041;-65
2023/01/14 03:05:46;;;;;;;17.87;3.30;;;;;;;;;;5051261;28;20049;-65
2023/01/14 03:08:12;;;;;;;22.90;4.83;;;;;;;;;;5051338;28;20086;-65
2023/01/14 03:10:46;;;;;;;21.80;3.47;;;;;;;;;;5051478;28;20103;-65
2023/01/14 03:13:26;;;;;;;21.47;3.60;;;;;;;;;;5049127;28;20040;-65
2023/01/14 03:16:01;;;;;;;20.87;2.97;;;;;;;;;;5051177;28;20076;-65
2023/01/14 03:18:33;;;;;;;18.60;3.37;;;;;;;;;;5051169;28;20503;-65
2023/01/14 03:21:01;;;;;;;22.33;3.80;;;;;;;;;;5050601;28;20045;-65
2023/01/14 03:23:28;;;;;;;24.50;4.37;;;;;;;;;;5050967;28;20052;-65
2023/01/14 03:25:54;;;;;;;18.37;2.90;;;;;;;;;;5050236;28;20076;-65
2023/01/14 03:28:23;;;;;;;21.30;4.47;;;;;;;;;;5051031;28;20044;-64
2023/01/14 03:30:51;;;;;;;20.47;4.73;;;;;;;;;;5050664;28;20057;-65
2023/01/14 03:33:21;;;;;;;27.03;4.47;;;;;;;;;;5050652;28;20037;-65
2023/01/14 03:35:48;;;;;;;29.50;4.50;;;;;;;;;;5050577;28;20120;-65
2023/01/14 03:38:17;;;;;;;27.03;3.97;;;;;;;;;;5050901;28;20447;-64
2023/01/14 03:40:44;;;;;;;16.67;2.90;;;;;;;;;;5064103;28;20052;-65
2023/01/14 03:43:15;;;;;;;25.27;3.30;;;;;;;;;;5070795;28;20090;-65
2023/01/14 03:45:42;;;;;;;22.93;4.53;;;;;;;;;;5070446;28;20040;-65
2023/01/14 03:48:09;;;;;;;16.73;3.53;;;;;;;;;;5070547;28;20052;-65
2023/01/14 03:50:44;;;;;;;15.60;2.90;;;;;;;;;;5069495;28;20485;-65
2023/01/14 03:53:33;;;;;;;27.97;4.90;;;;;;;;;;5068928;28;20052;-65
2023/01/14 03:56:13;;;;;;;19.23;3.40;;;;;;;;;;5070150;28;20839;-65
2023/01/14 03:58:59;;;;;;;16.20;2.83;;;;;;;;;;5070135;28;20044;-65
2023/01/14 04:01:28;;;;;;;21.27;3.47;;;;;;;;;;5069743;28;20052;-64
2023/01/14 04:03:54;;;;;;;21.53;3.53;;;;;;;;;;5069900;28;20040;-65
2023/01/14 04:06:20;;;;;;;17.30;3.43;;;;;;;;;;5070097;28;20403;-65
2023/01/14 04:08:46;;;;;;;24.37;3.60;;;;;;;;;;5069955;28;20048;-65
2023/01/14 04:11:12;;;;;;;27.57;4.17;;;;;;;;;;5067645;28;20525;-65
2023/01/14 04:16:23;;;;;;;26.93;4.77;;;;;;;;;;5070138;28;20044;-64
2023/01/14 04:18:49;;;;;;;26.00;3.97;;;;;;;;;;5069824;28;20048;-65
2023/01/14 04:21:15;;;;;;;30.37;5.80;;;;;;;;;;5068343;28;20415;-65
2023/01/14 04:23:41;;;;;;;20.07;3.90;;;;;;;;;;5068368;28;20049;-64
2023/01/14 04:26:07;;;;;;;24.60;3.80;;;;;;;;;;5068908;28;20040;-65
2023/01/14 04:28:33;;;;;;;17.50;3.87;;;;;;;;;;5069198;28;20067;-65
2023/01/14 04:30:59;;;;;;;13.80;3.30;;;;;;;;;;5069454;28;20040;-65
2023/01/14 04:33:25;;;;;;;21.13;3.50;;;;;;;;;;5068509;28;20071;-65
2023/01/14 04:35:52;;;;;;;27.50;4.17;;;;;;;;;;5069149;28;20384;-65
2023/01/14 04:38:22;;;;;;;25.37;4.17;;;;;;;;;;5068407;28;20044;-65
2023/01/14 04:40:51;;;;;;;22.83;5.10;;;;;;;;;;5069022;28;20051;-65
2023/01/14 04:43:17;;;;;;;30.43;5.37;;;;;;;;;;5068746;28;20572;-64
2023/01/14 04:45:43;;;;;;;24.93;4.20;;;;;;;;;;5068899;28;20379;-65
2023/01/14 04:48:16;;;;;;;26.67;4.40;;;;;;;;;;5085987;27;20409;-64
2023/01/14 04:50:44;;;;;;;30.30;4.67;;;;;;;;;;5086029;28;20297;-64
2023/01/14 04:53:21;;;;;;;24.03;5.40;;;;;;;;;;5069547;28;20139;-64
2023/01/14 04:55:47;;;;;;;26.47;5.30;;;;;;;;;;5065472;28;20045;-64
2023/01/14 04:58:15;;;;;;;24.10;4.43;;;;;;;;;;5047575;28;20059;-64
2023/01/14 05:00:41;;;;;;;26.50;4.87;;;;;;;;;;5064841;28;20056;-64
2023/01/14 05:03:08;;;;;;;24.37;5.30;;;;;;;;;;5064365;28;20577;-64
2023/01/14 05:05:35;;;;;;;29.27;4.73;;;;;;;;;;5065429;28;20041;-64
2023/01/14 05:08:02;;;;;;;33.53;5.33;;;;;;;;;;5069758;28;20052;-64
2023/01/14 05:10:28;;;;;;;29.57;4.80;;;;;;;;;;5084132;28;20494;-64
2023/01/14 05:12:57;;;;;;;33.53;6.13;;;;;;;;;;5085452;28;20090;-64
2023/01/14 05:15:39;;;;;;;30.67;6.47;;;;;;;;;;5085002;28;20067;-64
2023/01/14 05:18:06;;;;;;;30.50;6.50;;;;;;;;;;5085521;28;20553;-64
2023/01/14 05:20:32;;;;;;;35.37;5.77;;;;;;;;;;5067382;28;20045;-64
2023/01/14 05:23:00;;;;;;;26.97;5.33;;;;;;;;;;5084870;28;20086;-64
2023/01/14 05:25:26;;;;;;;29.13;6.10;;;;;;;;;;5085509;28;20051;-64
2023/01/14 05:27:52;;;;;;;23.43;5.17;;;;;;;;;;5085159;28;20082;-64
2023/01/14 05:30:18;;;;;;;33.50;6.83;;;;;;;;;;5085464;28;20053;-64
2023/01/14 05:32:44;;;;;;;31.83;6.13;;;;;;;;;;5083885;28;20059;-64
2023/01/14 05:35:10;;;;;;;25.70;5.30;;;;;;;;;;5084913;28;20044;-64
2023/01/14 05:37:37;;;;;;;31.37;6.73;;;;;;;;;;5083287;28;20060;-63
2023/01/14 05:40:03;;;;;;;32.37;6.37;;;;;;;;;;5084730;28;20075;-64
2023/01/14 05:48:00;;;;;;;37.17;6.90;;;;;;;;;;5083887;28;20427;-65
2023/01/14 05:50:26;;;;;;;30.47;6.43;;;;;;;;;;5083690;28;20097;-65
2023/01/14 05:52:52;;;;;;;32.67;7.30;;;;;;;;;;5084261;28;20452;-64
2023/01/14 05:55:18;;;;;;;33.23;7.53;;;;;;;;;;5083791;28;20052;-65
2023/01/14 05:57:44;;;;;;;33.57;7.77;;;;;;;;;;5080382;28;20123;-65
2023/01/14 06:06:20;;;;;;;36.90;7.00;;;;;;;;;;5070781;28;20082;-65
2023/01/14 06:08:26;;;;;;;44.00;7.23;;;;;;;;;;5069368;28;20052;-65
2023/01/14 06:10:53;;;;;;;34.87;7.17;;;;;;;;;;5070968;28;20102;-65
2023/01/14 06:13:22;;;;;;;37.83;7.10;;;;;;;;;;5070770;28;20052;-64
2023/01/14 06:15:51;;;;;;;48.07;8.30;;;;;;;;;;5071142;28;20085;-65
2023/01/14 06:18:21;;;;;;;32.30;7.33;;;;;;;;;;5071053;28;20040;-65
2023/01/14 06:20:48;;;;;;;39.33;8.63;;;;;;;;;;5069869;28;20044;-65
2023/01/14 06:23:14;;;;;;;35.50;7.57;;;;;;;;;;5069567;28;20052;-64
2023/01/14 06:25:42;;;;;;;41.00;8.20;;;;;;;;;;5069641;28;20052;-65
2023/01/14 06:28:08;;;;;;;36.13;8.23;;;;;;;;;;5066936;28;20055;-65
2023/01/14 06:30:34;;;;;;;30.30;8.30;;;;;;;;;;5063497;28;20047;-64
2023/01/14 06:33:00;;;;;;;43.17;9.20;;;;;;;;;;5070626;28;20041;-65
2023/01/14 06:35:26;;;;;;;39.23;7.57;;;;;;;;;;5070750;28;20041;-65
2023/01/14 06:37:52;;;;;;;40.07;8.30;;;;;;;;;;5064488;28;20051;-64
2023/01/14 06:40:19;;;;;;;33.77;8.07;;;;;;;;;;5049237;28;20059;-65
2023/01/14 06:42:46;;;;;;;43.00;8.53;;;;;;;;;;5065084;28;20510;-65
2023/01/14 06:45:12;;;;;;;42.00;8.90;;;;;;;;;;5070764;28;20041;-64
2023/01/14 06:47:39;;;;;;;46.57;8.83;;;;;;;;;;5068677;28;20605;-65
2023/01/14 06:50:05;;;;;;;47.10;8.30;;;;;;;;;;5070275;28;20143;-64
2023/01/14 06:52:32;;;;;;;38.90;8.97;;;;;;;;;;5069008;28;20106;-65
2023/01/14 06:54:58;;;;;;;39.23;8.43;;;;;;;;;;5070424;28;20062;-65
2023/01/14 06:57:25;;;;;;;40.67;8.53;;;;;;;;;;5069892;28;20045;-65
2023/01/14 06:59:51;;;;;;;32.57;6.50;;;;;;;;;;5069307;28;20041;-65
2023/01/14 07:02:17;;;;;;;54.40;8.87;;;;;;;;;;5058352;28;20503;-65
2023/01/14 07:04:43;;;;;;;40.77;7.73;;;;;;;;;;5059138;28;20125;-65
2023/01/14 07:07:10;;;;;;;34.53;8.90;;;;;;;;;;5058009;28;20047;-64
2023/01/14 07:09:36;;;;;;;33.83;7.97;;;;;;;;;;5056123;28;20513;-65
2023/01/14 07:12:02;;;;;;;34.70;8.10;;;;;;;;;;5041170;28;20155;-64
2023/01/14 07:14:28;;;;;;;34.03;9.23;;;;;;;;;;5059629;28;20316;-65
2023/01/14 07:16:54;;;;;;;33.33;7.90;;;;;;;;;;5056736;28;20128;-65
2023/01/14 07:19:21;;;;;;;48.23;7.33;;;;;;;;;;5059375;28;20041;-66
2023/01/14 07:21:47;;;;;;;40.47;7.97;;;;;;;;;;5058587;28;20487;-65
2023/01/14 07:24:14;;;;;;;40.73;8.70;;;;;;;;;;5039840;28;20483;-66
2023/01/14 07:26:40;;;;;;;43.30;8.23;;;;;;;;;;5058996;28;20040;-65
2023/01/14 07:29:06;;;;;;;28.73;8.30;;;;;;;;;;5055346;28;20053;-65
2023/01/14 07:31:32;;;;;;;41.13;7.07;;;;;;;;;;5055865;28;20052;-65
2023/01/14 07:33:58;;;;;;;37.30;6.27;;;;;;;;;;5058776;28;20482;-66
2023/01/14 07:36:24;;;;;;;35.00;6.77;;;;;;;;;;5056415;28;20086;-66
2023/01/14 07:38:50;;;;;;;41.43;6.67;;;;;;;;;;5058769;28;20044;-66
2023/01/14 07:41:18;;;;;;;34.63;8.53;;;;;;;;;;5055788;28;20041;-66
2023/01/14 07:43:44;;;;;;;28.70;5.23;;;;;;;;;;5055593;28;20150;-66
2023/01/14 07:46:10;;;;;;;32.23;5.07;;;;;;;;;;5059078;28;20047;-65
2023/01/14 07:48:36;;;;;;;30.50;6.60;;;;;;;;;;5061591;28;20542;-65
2023/01/14 07:51:03;;;;;;;36.03;5.57;;;;;;;;;;5055781;28;20041;-65
2023/01/14 07:53:29;;;;;;;29.10;5.67;;;;;;;;;;5051208;28;20141;-65
2023/01/14 07:55:55;;;;;;;38.97;6.33;;;;;;;;;;5064539;28;20488;-65
2023/01/14 07:58:23;;;;;;;24.10;5.73;;;;;;;;;;5055227;28;20494;-64
2023/01/14 08:00:49;;;;;;;35.20;6.67;;;;;;;;;;5058473;28;20048;-66
2023/01/14 08:03:15;;;;;;;35.67;7.37;;;;;;;;;;5053685;28;20048;-66
2023/01/14 08:05:41;;;;;;;39.67;6.60;;;;;;;;;;5048845;28;20419;-66
2023/01/14 08:08:07;;;;;;;34.73;5.70;;;;;;;;;;5051696;28;20604;-66
2023/01/14 08:10:33;;;;;;;41.07;7.07;;;;;;;;;;5052634;28;20110;-67
2023/01/14 08:12:59;;;;;;;41.90;6.63;;;;;;;;;;5060871;28;20462;-67
2023/01/14 08:15:25;;;;;;;52.67;7.57;;;;;;;;;;5051825;28;20127;-67
2023/01/14 08:17:51;;;;;;;36.27;6.87;;;;;;;;;;5055808;28;20037;-66
2023/01/14 08:20:22;;;;;;;41.30;5.87;;;;;;;;;;5056109;28;20056;-66
2023/01/14 08:22:48;;;;;;;38.10;6.67;;;;;;;;;;5053717;28;20091;-67
2023/01/14 08:25:14;;;;;;;27.60;5.43;;;;;;;;;;5057985;28;20063;-66
2023/01/14 08:27:40;;;;;;;41.67;7.07;;;;;;;;;;5052188;28;20049;-67
2023/01/14 08:30:06;;;;;;;37.40;6.67;;;;;;;;;;5057066;28;20518;-67
2023/01/14 08:32:32;;;;;;;33.27;6.53;;;;;;;;;;5051450;28;20080;-67
2023/01/14 08:34:58;;;;;;;39.97;7.73;;;;;;;;;;5055292;28;20061;-66
2023/01/14 08:37:24;;;;;;;32.10;5.60;;;;;;;;;;5057775;28;20067;-67
2023/01/14 08:39:50;;;;;;;48.27;7.07;;;;;;;;;;5056613;28;20045;-67
2023/01/14 08:42:16;;;;;;;34.83;6.30;;;;;;;;;;5054662;28;20363;-67
2023/01/14 08:44:42;;;;;;;36.97;6.70;;;;;;;;;;5058343;28;20040;-67
2023/01/14 08:47:08;;;;;;;39.10;7.13;;;;;;;;;;5058002;28;20060;-68
2023/01/14 08:49:35;;;;;;;32.53;6.83;;;;;;;;;;5057524;28;20056;-68
2023/01/14 08:52:01;;;;;;;28.03;5.47;;;;;;;;;;5058167;28;20400;-67
2023/01/14 08:54:27;;;;;;;34.53;5.67;;;;;;;;;;5058246;28;20086;-68
2023/01/14 08:56:55;;;;;;;35.67;6.67;;;;;;;;;;5056106;28;20471;-67
2023/01/14 08:59:21;;;;;;;33.57;8.47;;;;;;;;;;5058760;28;20048;-68
2023/01/14 09:01:47;;;;;;;28.53;5.47;;;;;;;;;;5059292;28;20146;-67
2023/01/14 09:04:16;;;;;;;31.07;7.83;;;;;;;;;;5054785;28;20443;-69
2023/01/14 09:17:43;;;;;;;29.47;7.00;;;;;;;;;;5047629;28;20400;-67
2023/01/14 09:20:10;;;;;;;35.63;7.37;;;;;;;;;;5055573;28;20076;-67
2023/01/14 09:22:36;;;;;;;26.17;5.70;;;;;;;;;;5046285;28;20056;-67
2023/01/14 09:25:02;;;;;;;23.50;6.63;;;;;;;;;;5053144;28;20461;-67
2023/01/14 09:27:29;;;;;;;28.87;6.57;;;;;;;;;;5046895;28;20130;-67
2023/01/14 09:29:55;;;;;;;37.37;7.00;;;;;;;;;;5065657;28;20111;-68
2023/01/14 09:32:21;;;;;;;24.03;6.17;;;;;;;;;;5047940;28;20071;-67
2023/01/14 09:34:50;;;;;;;4.03;0.83;;;;;;;;;;5068228;28;20050;-68
2023/01/14 09:37:25;;;;;;;27.00;6.23;;;;;;;;;;5070278;28;20047;-67
2023/01/14 09:39:51;;;;;;;26.17;8.37;;;;;;;;;;5049197;28;20135;-68
2023/01/14 09:42:24;;;;;;;19.37;6.43;;;;;;;;;;5049948;28;20045;-68
2023/01/14 09:44:54;;;;;;;18.60;4.85;;;;;;;;;;5059899;28;20045;-67
2023/01/14 09:47:23;;;;;;;21.17;5.47;;;;;;;;;;5058513;28;20092;-68
2023/01/14 09:49:49;;;;;;;19.23;4.00;;;;;;;;;;5066633;28;20157;-67
2023/01/14 09:52:23;;;;;;;19.70;5.00;;;;;;;;;;5064319;28;20045;-69
2023/01/14 09:55:01;;;;;;;24.07;5.00;;;;;;;;;;5063778;28;20494;-68
2023/01/14 09:57:28;;;;;;;15.17;4.17;;;;;;;;;;5069000;28;20041;-67
2023/01/14 09:59:58;;;;;;;18.80;5.00;;;;;;;;;;5069432;28;20055;-67
2023/01/14 10:02:29;;;;;;;20.83;5.27;;;;;;;;;;5066178;28;20079;-68
2023/01/14 10:05:10;;;;;;;18.23;4.27;;;;;;;;;;5067839;28;20509;-67
2023/01/14 10:07:36;;;;;;;12.83;4.53;;;;;;;;;;5067685;28;20059;-68
2023/01/14 10:10:03;;;;;;;19.80;4.30;;;;;;;;;;5059298;28;20043;-68
2023/01/14 10:12:32;;;;;;;19.63;4.67;;;;;;;;;;5068467;28;20493;-68
2023/01/14 10:15:18;;;;;;;20.53;4.57;;;;;;;;;;5069222;28;20052;-68
2023/01/14 10:17:59;;;;;;;12.93;4.57;;;;;;;;;;5038551;28;20041;-69
2023/01/14 10:20:28;;;;;;;23.43;5.97;;;;;;;;;;5060756;28;20395;-68
2023/01/14 10:22:57;;;;;;;18.03;5.33;;;;;;;;;;5063098;28;20060;-69
2023/01/14 10:25:23;;;;;;;20.90;5.30;;;;;;;;;;5069142;28;20052;-68
2023/01/14 10:27:53;;;;;;;14.80;5.17;;;;;;;;;;5067013;28;20087;-68
2023/01/14 10:30:40;;;;;;;18.37;5.13;;;;;;;;;;5051577;28;20139;-69
2023/01/14 10:33:07;;;;;;;14.77;4.43;;;;;;;;;;5066334;28;20052;-69
2023/01/14 10:35:38;;;;;;;15.40;4.47;;;;;;;;;;5068929;28;20418;-68
2023/01/14 10:38:04;;;;;;;19.33;4.43;;;;;;;;;;5062517;28;20060;-68
2023/01/14 10:40:32;;;;;;;16.43;5.00;;;;;;;;;;5068831;28;20044;-68
2023/01/14 10:42:58;;;;;;;12.63;4.53;;;;;;;;;;5066539;28;20087;-69
2023/01/14 10:45:25;;;;;;;14.53;4.30;;;;;;;;;;5062372;28;20049;-68
2023/01/14 10:47:55;;;;;;;17.07;4.23;;;;;;;;;;5055500;28;20102;-68
2023/01/14 10:50:23;;;;;;;14.13;3.87;;;;;;;;;;5069039;28;20442;-69
2023/01/14 10:52:49;;;;;;;13.83;3.97;;;;;;;;;;5065519;28;20098;-68
2023/01/14 10:55:16;;;;;;;11.07;3.97;;;;;;;;;;5062585;28;20151;-68
2023/01/14 10:57:50;;;;;;;14.27;4.37;;;;;;;;;;5048890;28;20056;-68
2023/01/14 11:00:35;;;;;;;10.07;3.77;;;;;;;;;;5064475;28;20083;-68
2023/01/14 11:03:03;;;;;;;13.43;3.90;;;;;;;;;;5059204;28;20052;-68
2023/01/14 11:05:32;;;;;;;19.70;4.90;;;;;;;;;;5062544;28;20064;-68
2023/01/14 11:08:00;;;;;;;11.23;4.07;;;;;;;;;;5053561;28;20094;-67
2023/01/14 11:10:31;;;;;;;13.17;4.33;;;;;;;;;;5048088;28;20079;-68
2023/01/14 11:13:17;;;;;;;14.53;3.53;;;;;;;;;;5054243;28;20057;-68
2023/01/14 11:15:45;;;;;;;17.80;3.80;;;;;;;;;;5050464;28;20094;-67
2023/01/14 11:18:28;;;;;;;11.33;3.50;;;;;;;;;;5054656;28;20216;-68
2023/01/14 11:21:00;;;;;;;17.07;4.27;;;;;;;;;;5063584;28;20040;-69
2023/01/14 11:23:28;;;;;;;14.90;3.57;;;;;;;;;;5038293;28;20060;-68
2023/01/14 11:25:54;;;;;;;9.73;3.30;;;;;;;;;;5048749;28;20137;-68
2023/01/14 11:28:20;;;;;;;8.43;3.60;;;;;;;;;;5052549;28;20052;-68
2023/01/14 11:30:49;;;;;;;10.57;3.10;;;;;;;;;;5058117;28;20616;-68
2023/01/14 11:33:20;;;;;;;9.50;3.23;;;;;;;;;;5054877;28;20538;-67
2023/01/14 11:35:54;;;;;;;7.33;3.10;;;;;;;;;;5056723;28;20070;-67
2023/01/14 11:38:23;;;;;;;9.70;3.33;;;;;;;;;;5056455;28;20067;-67
2023/01/14 11:43:51;;;;;;;11.87;3.47;;;;;;;;;;5059413;28;20045;-67
2023/01/14 11:46:17;;;;;;;10.20;3.03;;;;;;;;;;5057214;28;20045;-67
2023/01/14 11:48:44;;;;;;;10.27;2.70;;;;;;;;;;5040805;28;20479;-67
2023/01/14 11:51:18;;;;;;;9.37;3.20;;;;;;;;;;5055323;28;20060;-67
2023/01/14 11:53:48;;;;;;;18.90;3.57;;;;;;;;;;5053402;28;20037;-68
2023/01/14 11:56:20;;;;;;;9.00;3.50;;;;;;;;;;5056257;28;20041;-68
2023/01/14 11:58:46;;;;;;;8.77;3.23;;;;;;;;;;5055451;28;20043;-66
2023/01/14 12:01:26;;;;;;;12.83;3.30;;;;;;;;;;5058223;28;20045;-67
2023/01/14 12:03:56;;;;;;;9.87;3.00;;;;;;;;;;5058330;28;20079;-67
2023/01/14 12:06:24;;;;;;;10.33;2.93;;;;;;;;;;5058234;28;20033;-68
2023/01/14 12:08:55;;;;;;;9.67;3.10;;;;;;;;;;5058033;28;20471;-69
2023/01/14 12:11:31;;;;;;;17.83;3.87;;;;;;;;;;5054282;28;20052;-68
2023/01/14 12:16:50;;;;;;;13.63;3.63;;;;;;;;;;5055648;28;20546;-68
2023/01/14 12:19:30;;;;;;;8.40;3.03;;;;;;;;;;5056933;28;20059;-68
2023/01/14 12:21:59;;;;;;;7.57;3.13;;;;;;;;;;5058433;28;20052;-67
2023/01/14 12:24:45;;;;;;;9.07;3.30;;;;;;;;;;5056982;28;20408;-67
2023/01/14 12:27:43;;;;;;;16.47;3.30;;;;;;;;;;5057900;28;20577;-67
2023/01/14 12:30:09;;;;;;;7.23;2.90;;;;;;;;;;5056385;28;20486;-67
2023/01/14 12:32:36;;;;;;;9.13;3.17;;;;;;;;;;5052162;28;20056;-67
2023/01/14 12:35:02;;;;;;;5.60;2.50;;;;;;;;;;5054619;28;20044;-67
2023/01/14 12:37:31;;;;;;;6.67;2.30;;;;;;;;;;5055746;28;20049;-67
2023/01/14 12:45:41;;;;;;;7.53;2.47;;;;;;;;;;5047464;28;20049;-67
2023/01/14 12:45:54;;;;;;;8.40;2.50;;;;;;;;;;5061500;28;20055;-68
2023/01/14 12:48:24;;;;;;;5.27;2.50;;;;;;;;;;5060206;28;20562;-68
2023/01/14 12:50:53;;;;;;;8.30;3.03;;;;;;;;;;5056651;28;20110;-66
2023/01/14 12:53:24;;;;;;;10.80;2.47;;;;;;;;;;5060817;28;20057;-66
2023/01/14 12:55:51;;;;;;;5.80;2.23;;;;;;;;;;5062164;28;20045;-67
2023/01/14 12:58:21;;;;;;;6.77;2.37;;;;;;;;;;5065977;28;20052;-67
2023/01/14 13:01:14;;;;;;;4.97;2.20;;;;;;;;;;5065337;28;20048;-67
2023/01/14 13:03:43;;;;;;;4.97;2.27;;;;;;;;;;5065245;28;20053;-67
2023/01/14 13:06:14;;;;;;;6.70;2.73;;;;;;;;;;5066508;28;20057;-68
2023/01/14 13:08:41;;;;;;;5.13;2.30;;;;;;;;;;5049973;28;20044;-67
2023/01/14 13:11:11;;;;;;;6.57;2.20;;;;;;;;;;5067673;28;20044;-67
2023/01/14 13:13:41;;;;;;;5.53;2.20;;;;;;;;;;5057702;28;20044;-67
2023/01/14 13:16:27;;;;;;;4.03;1.80;;;;;;;;;;5061522;28;20048;-67
2023/01/14 13:18:59;;;;;;;4.97;1.93;;;;;;;;;;5058169;28;20470;-68
2023/01/14 13:21:44;;;;;;;5.60;1.77;;;;;;;;;;5056746;28;20049;-67
2023/01/14 13:24:28;;;;;;;7.60;2.10;;;;;;;;;;5068929;28;20080;-67
2023/01/14 13:26:55;;;;;;;5.33;2.10;;;;;;;;;;5050264;28;20045;-67
2023/01/14 13:29:23;;;;;;;4.63;2.50;;;;;;;;;;5048724;28;20052;-67
2023/01/14 13:31:50;;;;;;;5.73;1.87;;;;;;;;;;5050931;28;20041;-67
2023/01/14 13:34:22;;;;;;;3.77;2.17;;;;;;;;;;5048859;28;20530;-67
2023/01/14 13:36:57;;;;;;;6.17;2.70;;;;;;;;;;5048253;28;20524;-67
2023/01/14 13:39:24;;;;;;;4.60;2.03;;;;;;;;;;5048070;28;20057;-68
2023/01/14 13:41:51;;;;;;;3.37;1.63;;;;;;;;;;5047876;28;20414;-67
2023/01/14 13:44:20;;;;;;;3.03;1.70;;;;;;;;;;5047563;28;20446;-68
2023/01/14 13:46:48;;;;;;;2.60;1.80;;;;;;;;;;5048622;28;20439;-67
2023/01/14 13:49:23;;;;;;;5.80;2.20;;;;;;;;;;5032580;28;20060;-67
2023/01/14 13:51:50;;;;;;;4.20;2.00;;;;;;;;;;5049484;28;20045;-67
2023/01/14 13:54:19;;;;;;;6.03;2.50;;;;;;;;;;5048713;28;20049;-67
2023/01/14 13:56:50;;;;;;;4.37;1.80;;;;;;;;;;5032937;28;20226;-67
2023/01/14 13:59:23;;;;;;;3.63;1.80;;;;;;;;;;5050741;28;20531;-67
2023/01/14 14:01:50;;;;;;;5.82;2.05;;;;;;;;;;5050755;28;20045;-67
2023/01/14 14:04:36;;;;;;;2.80;1.80;;;;;;;;;;5049744;28;20474;-67
2023/01/14 14:07:04;;;;;;;4.40;1.90;;;;;;;;;;5049942;28;20418;-68
2023/01/14 14:09:31;;;;;;;3.03;2.03;;;;;;;;;;5049598;28;20166;-67
2023/01/14 14:12:00;;;;;;;7.07;2.70;;;;;;;;;;5049546;28;20403;-68
2023/01/14 14:14:28;;;;;;;5.27;2.27;;;;;;;;;;5050326;28;20079;-67
2023/01/14 14:16:54;;;;;;;4.40;2.27;;;;;;;;;;5048285;28;20553;-68
2023/01/14 14:19:34;;;;;;;5.93;2.80;;;;;;;;;;5049970;28;20044;-68
2023/01/14 14:22:07;;;;;;;5.10;2.23;;;;;;;;;;5050200;28;20545;-67
2023/01/14 14:24:36;;;;;;;4.97;2.13;;;;;;;;;;5050089;28;20081;-67
2023/01/14 14:27:06;;;;;;;4.37;2.10;;;;;;;;;;5049756;28;20049;-67
2023/01/14 14:29:36;;;;;;;4.87;1.90;;;;;;;;;;5049370;28;20441;-67
2023/01/14 14:32:08;;;;;;;4.33;2.67;;;;;;;;;;5048420;28;20560;-67
2023/01/14 14:34:34;;;;;;;4.15;1.98;;;;;;;;;;5050029;28;20048;-67
2023/01/14 14:37:03;;;;;;;4.00;2.30;;;;;;;;;;5049895;28;20137;-67
2023/01/14 14:39:31;;;;;;;4.80;2.20;;;;;;;;;;5049323;28;20081;-67
2023/01/14 14:41:57;;;;;;;2.77;2.03;;;;;;;;;;5049770;28;20037;-67
2023/01/14 14:44:24;;;;;;;2.47;1.77;;;;;;;;;;5049847;28;20041;-67
2023/01/14 14:46:50;;;;;;;4.13;2.73;;;;;;;;;;5047906;28;20053;-67
2023/01/14 14:49:20;;;;;;;3.30;1.80;;;;;;;;;;5049724;28;20059;-67
2023/01/14 14:51:47;;;;;;;6.70;2.50;;;;;;;;;;5048006;28;20421;-67
2023/01/14 14:54:27;;;;;;;4.17;2.73;;;;;;;;;;5049391;28;20130;-67
2023/01/14 14:56:54;;;;;;;4.93;2.70;;;;;;;;;;5049475;28;20506;-67
2023/01/14 14:59:21;;;;;;;4.63;2.53;;;;;;;;;;5048015;28;20052;-67
2023/01/14 15:01:47;;;;;;;4.00;2.43;;;;;;;;;;5048293;28;20257;-67
2023/01/14 15:04:16;;;;;;;4.80;2.63;;;;;;;;;;5048997;28;20053;-67
2023/01/14 15:06:43;;;;;;;4.47;2.60;;;;;;;;;;5049454;28;20052;-67
2023/01/14 15:09:09;;;;;;;4.53;2.70;;;;;;;;;;5048084;28;20052;-67
2023/01/14 15:11:43;;;;;;;4.17;2.70;;;;;;;;;;5049238;28;20249;-67
2023/01/14 15:14:17;;;;;;;3.60;2.70;;;;;;;;;;5048759;28;20076;-67
2023/01/14 15:16:49;;;;;;;4.93;3.30;;;;;;;;;;5047887;28;20041;-67
2023/01/14 15:19:15;;;;;;;5.43;3.10;;;;;;;;;;5047762;28;20052;-68
2023/01/14 15:21:42;;;;;;;4.97;3.23;;;;;;;;;;5049211;28;20040;-67